Time;durP1;ratioP1;P1;durP2;ratioP2;P2;SDS_P1;SDS_P2;PMS_P1;PMS_P2;Temp;Humidity;BMP_temperature;BMP_pressure;BME280_temperature;BME280_humidity;BME280_pressure;Samples;Min_cycle;Max_cycle;Signal;HPM_P1;HPM_P2
2022/03/15 00:02:14;;;;;;;42.92;24.30;;;;;;;-146.84;100.00;65060.63;4985019;28;20133;-77
2022/03/15 00:04:40;;;;;;;48.30;23.88;;;;;;;-146.84;100.00;65060.63;5024154;28;20503;-75
2022/03/15 00:07:10;;;;;;;51.70;25.85;;;;;;;-146.84;100.00;65060.63;5006008;28;20192;-75
2022/03/15 00:09:36;;;;;;;41.17;23.33;;;;;;;-146.84;100.00;65060.63;4989754;28;20038;-75
2022/03/15 00:12:03;;;;;;;45.45;25.17;;;;;;;-146.84;100.00;65060.63;5008341;28;20045;-74
2022/03/15 00:14:28;;;;;;;55.15;26.98;;;;;;;-146.84;100.00;65060.63;5005548;28;20038;-77
2022/03/15 00:16:54;;;;;;;51.33;26.30;;;;;;;-146.84;100.00;65060.63;5009310;28;20038;-78
2022/03/15 00:19:20;;;;;;;48.60;25.10;;;;;;;-146.84;100.00;65060.63;5009086;28;20085;-75
2022/03/15 00:21:45;;;;;;;52.53;25.10;;;;;;;-146.84;100.00;65060.63;5006605;28;20041;-78
2022/03/15 00:24:11;;;;;;;54.38;25.55;;;;;;;-146.84;100.00;65060.63;4976835;28;20416;-77
2022/03/15 00:26:37;;;;;;;59.65;26.23;;;;;;;-146.84;100.00;65060.63;5013533;28;20030;-77
2022/03/15 00:29:10;;;;;;;51.97;24.95;;;;;;;-146.84;100.00;65060.63;4997554;28;20048;-75
2022/03/15 00:31:36;;;;;;;54.45;25.70;;;;;;;-146.84;100.00;65060.63;4981109;28;20041;-76
2022/03/15 00:34:03;;;;;;;63.83;26.80;;;;;;;-146.84;100.00;65060.63;5012091;28;20120;-75
2022/03/15 00:36:30;;;;;;;63.38;27.00;;;;;;;-146.84;100.00;65060.63;5027698;28;20032;-78
2022/03/15 00:38:56;;;;;;;61.00;26.98;;;;;;;-146.84;100.00;65060.63;4998860;28;20399;-77
2022/03/15 00:41:25;;;;;;;61.25;27.77;;;;;;;-146.84;100.00;65060.63;4998059;28;20038;-76
2022/03/15 00:43:50;;;;;;;66.53;28.30;;;;;;;-146.84;100.00;65060.63;5011478;28;20088;-74
2022/03/15 00:46:16;;;;;;;67.05;29.13;;;;;;;-146.84;100.00;65060.63;4996345;28;20034;-74
2022/03/15 00:48:41;;;;;;;68.57;28.77;;;;;;;-146.84;100.00;65060.63;5017351;28;20034;-76
2022/03/15 00:51:07;;;;;;;74.75;31.33;;;;;;;-146.84;100.00;65060.63;4995558;28;20034;-78
2022/03/15 00:53:32;;;;;;;92.18;34.78;;;;;;;-146.84;100.00;65060.63;4998713;28;20504;-75
2022/03/15 00:55:58;;;;;;;78.95;36.83;;;;;;;-146.84;100.00;65060.63;5013741;28;20038;-79
2022/03/15 00:58:24;;;;;;;91.80;39.22;;;;;;;-146.84;100.00;65060.63;4995913;28;20037;-76
2022/03/15 01:00:50;;;;;;;81.80;39.63;;;;;;;-146.84;100.00;65060.63;4995013;28;20034;-76
2022/03/15 01:03:16;;;;;;;102.05;39.95;;;;;;;-146.84;100.00;65060.63;5012465;28;20446;-75
2022/03/15 01:05:42;;;;;;;89.32;37.85;;;;;;;-146.84;100.00;65060.63;4995509;28;20092;-76
2022/03/15 01:08:07;;;;;;;79.25;38.80;;;;;;;-146.84;100.00;65060.63;5011725;28;20026;-77
2022/03/15 01:10:34;;;;;;;116.00;40.45;;;;;;;-146.84;100.00;65060.63;5012673;28;20071;-75
2022/03/15 01:13:00;;;;;;;213.80;43.45;;;;;;;-146.84;100.00;65060.63;4996204;28;20030;-76
2022/03/15 01:15:25;;;;;;;87.13;38.65;;;;;;;-146.84;100.00;65060.63;4996302;28;20113;-76
2022/03/15 01:17:52;;;;;;;93.03;40.03;;;;;;;-146.84;100.00;65060.63;5012315;28;20165;-76
2022/03/15 01:20:18;;;;;;;129.15;40.53;;;;;;;-146.84;100.00;65060.63;5007321;28;20042;-76
2022/03/15 01:22:43;;;;;;;91.35;39.58;;;;;;;-146.84;100.00;65060.63;4995283;28;20049;-77
2022/03/15 01:25:09;;;;;;;87.85;39.33;;;;;;;-146.84;100.00;65060.63;5008993;28;20048;-76
2022/03/15 01:27:37;;;;;;;91.78;39.88;;;;;;;-146.84;100.00;65060.63;4993036;28;20374;-78
2022/03/15 01:30:06;;;;;;;86.30;40.20;;;;;;;-146.84;100.00;65060.63;5008802;28;20473;-75
2022/03/15 01:32:31;;;;;;;83.00;38.28;;;;;;;-146.84;100.00;65060.63;5006621;28;20085;-76
2022/03/15 01:34:57;;;;;;;78.15;35.75;;;;;;;-146.84;100.00;65060.63;4994313;28;20465;-77
2022/03/15 01:37:23;;;;;;;76.85;37.42;;;;;;;-146.84;100.00;65060.63;4995137;28;20875;-77
2022/03/15 01:39:49;;;;;;;80.82;36.58;;;;;;;-146.84;100.00;65060.63;4996169;28;20070;-77
2022/03/15 01:42:15;;;;;;;79.13;37.08;;;;;;;-146.84;100.00;65060.63;4995113;28;20164;-77
2022/03/15 01:44:49;;;;;;;80.65;37.78;;;;;;;-146.84;100.00;65060.63;5010353;28;20042;-77
2022/03/15 01:47:15;;;;;;;89.40;38.03;;;;;;;-146.84;100.00;65060.63;5001976;28;20061;-76
2022/03/15 01:49:41;;;;;;;103.45;41.88;;;;;;;-146.84;100.00;65060.63;4988084;28;20575;-77
2022/03/15 01:52:13;;;;;;;96.90;41.33;;;;;;;-146.84;100.00;65060.63;4992083;28;20064;-75
2022/03/15 01:54:40;;;;;;;85.82;37.90;;;;;;;-146.84;100.00;65060.63;4994882;28;20832;-75
2022/03/15 01:57:07;;;;;;;102.38;40.47;;;;;;;-146.84;100.00;65060.63;4991705;28;20048;-78
2022/03/15 01:59:34;;;;;;;95.57;38.30;;;;;;;-146.84;100.00;65060.63;5012966;28;20042;-76
2022/03/15 02:01:59;;;;;;;81.57;36.05;;;;;;;-146.84;100.00;65060.63;4992265;28;20145;-75
2022/03/15 02:04:25;;;;;;;101.82;42.95;;;;;;;-146.84;100.00;65060.63;4993892;28;20514;-76
2022/03/15 02:07:06;;;;;;;130.68;46.38;;;;;;;-146.84;100.00;65060.63;4994365;28;20034;-75
2022/03/15 02:09:32;;;;;;;134.23;48.42;;;;;;;-146.84;100.00;65060.63;4992428;28;20026;-76
2022/03/15 02:11:58;;;;;;;123.78;45.00;;;;;;;-146.84;100.00;65060.63;5020613;28;20036;-75
2022/03/15 02:14:25;;;;;;;117.85;43.75;;;;;;;-146.84;100.00;65060.63;5005665;28;20042;-77
2022/03/15 02:16:51;;;;;;;105.15;41.28;;;;;;;-146.84;100.00;65060.63;5009287;28;20116;-76
2022/03/15 02:19:17;;;;;;;86.88;38.17;;;;;;;-146.84;100.00;65060.63;5011151;28;20061;-76
2022/03/15 02:21:42;;;;;;;70.75;33.53;;;;;;;-146.84;100.00;65060.63;4976775;28;20119;-77
2022/03/15 02:24:08;;;;;;;68.18;33.33;;;;;;;-146.84;100.00;65060.63;4994482;28;20030;-76
2022/03/15 02:26:34;;;;;;;70.22;31.92;;;;;;;-146.84;100.00;65060.63;4997924;28;20097;-78
2022/03/15 02:28:59;;;;;;;73.47;33.08;;;;;;;-146.84;100.00;65060.63;5028795;28;20068;-76
2022/03/15 02:31:25;;;;;;;70.00;30.90;;;;;;;-146.84;100.00;65060.63;5013638;28;20050;-77
2022/03/15 02:33:50;;;;;;;70.90;31.02;;;;;;;-146.84;100.00;65060.63;4996737;28;20056;-76
2022/03/15 02:36:17;;;;;;;67.95;32.75;;;;;;;-146.84;100.00;65060.63;5012571;28;20100;-76
2022/03/15 02:38:45;;;;;;;69.47;32.78;;;;;;;-146.84;100.00;65060.63;5019996;28;20034;-77
2022/03/15 02:41:11;;;;;;;67.10;31.67;;;;;;;-146.84;100.00;65060.63;4991668;28;20042;-77
2022/03/15 02:43:38;;;;;;;71.43;33.40;;;;;;;-146.84;100.00;65060.63;4992865;28;20515;-77
2022/03/15 02:46:03;;;;;;;74.10;34.60;;;;;;;-146.84;100.00;65060.63;5008084;28;20100;-77
2022/03/15 02:48:29;;;;;;;73.18;33.72;;;;;;;-146.84;100.00;65060.63;5003915;28;20038;-76
2022/03/15 02:50:58;;;;;;;78.75;36.20;;;;;;;-146.84;100.00;65060.63;4989050;28;20219;-75
2022/03/15 02:53:25;;;;;;;82.22;37.47;;;;;;;-146.84;100.00;65060.63;5004107;28;20183;-75
2022/03/15 02:55:52;;;;;;;90.53;37.20;;;;;;;-146.84;100.00;65060.63;4985476;28;20038;-78
2022/03/15 02:58:19;;;;;;;89.28;41.10;;;;;;;-146.84;100.00;65060.63;4992355;28;20407;-76
2022/03/15 03:00:45;;;;;;;97.88;41.03;;;;;;;-146.84;100.00;65060.63;4969083;28;20038;-76
2022/03/15 03:03:11;;;;;;;95.03;38.08;;;;;;;-146.84;100.00;65060.63;4997196;28;20069;-76
2022/03/15 03:05:39;;;;;;;91.13;39.22;;;;;;;-146.84;100.00;65060.63;4991547;28;20099;-76
2022/03/15 03:08:05;;;;;;;120.35;44.08;;;;;;;-146.84;100.00;65060.63;4991757;28;20025;-78
2022/03/15 03:10:32;;;;;;;137.45;49.63;;;;;;;-146.84;100.00;65060.63;5007373;28;20029;-77
2022/03/15 03:12:58;;;;;;;146.05;50.75;;;;;;;-146.84;100.00;65060.63;5007906;28;20068;-77
2022/03/15 03:15:23;;;;;;;137.77;51.10;;;;;;;-146.84;100.00;65060.63;5015296;28;20168;-77
2022/03/15 03:17:49;;;;;;;149.13;49.97;;;;;;;-146.84;100.00;65060.63;4991648;28;20041;-77
2022/03/15 03:20:19;;;;;;;134.45;48.63;;;;;;;-146.84;100.00;65060.63;4993045;28;20041;-77
2022/03/15 03:22:46;;;;;;;140.77;48.13;;;;;;;-146.84;100.00;65060.63;4998291;28;20238;-77
2022/03/15 03:25:15;;;;;;;115.53;44.22;;;;;;;-146.84;100.00;65060.63;4991712;28;20116;-77
2022/03/15 03:27:41;;;;;;;80.25;36.75;;;;;;;-146.84;100.00;65060.63;4973635;28;20044;-76
2022/03/15 03:30:07;;;;;;;74.80;33.53;;;;;;;-146.84;100.00;65060.63;4993389;28;20029;-76
2022/03/15 03:32:34;;;;;;;75.07;33.72;;;;;;;-146.84;100.00;65060.63;4991530;28;20089;-76
2022/03/15 03:35:04;;;;;;;65.53;32.45;;;;;;;-146.84;100.00;65060.63;4978613;28;20041;-76
2022/03/15 03:37:31;;;;;;;72.13;33.83;;;;;;;-146.84;100.00;65060.63;4991256;28;20038;-77
2022/03/15 03:39:57;;;;;;;107.32;33.13;;;;;;;-146.84;100.00;65060.63;4975142;28;20053;-77
2022/03/15 03:42:24;;;;;;;64.95;31.42;;;;;;;-146.84;100.00;65060.63;5008695;28;20030;-77
2022/03/15 03:44:50;;;;;;;114.97;31.70;;;;;;;-146.84;100.00;65060.63;4990064;28;20034;-76
2022/03/15 03:47:15;;;;;;;63.65;32.10;;;;;;;-146.84;100.00;65060.63;4992752;28;20763;-78
2022/03/15 03:49:41;;;;;;;67.63;30.42;;;;;;;-146.84;100.00;65060.63;4992652;28;20121;-77
2022/03/15 03:52:07;;;;;;;63.13;30.35;;;;;;;-146.84;100.00;65060.63;4993220;28;20034;-75
2022/03/15 03:54:34;;;;;;;69.80;32.85;;;;;;;-146.84;100.00;65060.63;4997092;28;20033;-77
2022/03/15 03:57:00;;;;;;;70.80;31.48;;;;;;;-146.84;100.00;65060.63;4989676;28;20034;-77
2022/03/15 03:59:26;;;;;;;78.70;32.85;;;;;;;-146.84;100.00;65060.63;5006360;28;20124;-77
2022/03/15 04:01:52;;;;;;;71.68;32.85;;;;;;;-146.84;100.00;65060.63;4996350;28;20136;-75
2022/03/15 04:04:17;;;;;;;64.28;31.60;;;;;;;-146.84;100.00;65060.63;5012155;28;20141;-77
2022/03/15 04:06:44;;;;;;;78.95;30.50;;;;;;;-146.84;100.00;65060.63;4997621;28;20037;-77
2022/03/15 04:09:10;;;;;;;59.97;30.30;;;;;;;-146.84;100.00;65060.63;4981586;28;20065;-76
2022/03/15 04:11:36;;;;;;;68.55;31.08;;;;;;;-146.84;100.00;65060.63;4996836;28;20037;-76
2022/03/15 04:14:03;;;;;;;108.72;30.35;;;;;;;-146.84;100.00;65060.63;5013863;28;20033;-76
2022/03/15 04:16:30;;;;;;;125.72;30.42;;;;;;;-146.84;100.00;65060.63;4995437;28;20093;-76
2022/03/15 04:18:56;;;;;;;133.45;29.83;;;;;;;-146.84;100.00;65060.63;5014008;28;20408;-77
2022/03/15 04:21:25;;;;;;;65.50;31.92;;;;;;;-146.84;100.00;65060.63;5014322;28;20130;-74
2022/03/15 04:23:52;;;;;;;96.43;31.48;;;;;;;-146.84;100.00;65060.63;5013350;28;20038;-79
2022/03/15 04:26:18;;;;;;;106.40;33.17;;;;;;;-146.84;100.00;65060.63;4997974;28;20036;-76
2022/03/15 04:28:45;;;;;;;108.60;34.53;;;;;;;-146.84;100.00;65060.63;4997750;28;20091;-78
2022/03/15 04:31:11;;;;;;;95.10;33.05;;;;;;;-146.84;100.00;65060.63;4997938;28;20144;-76
2022/03/15 04:33:36;;;;;;;93.85;34.13;;;;;;;-146.84;100.00;65060.63;5014590;28;20508;-77
2022/03/15 04:36:02;;;;;;;82.63;31.95;;;;;;;-146.84;100.00;65060.63;5012325;28;20033;-77
2022/03/15 04:38:28;;;;;;;88.70;32.08;;;;;;;-146.84;100.00;65060.63;5018138;28;20480;-76
2022/03/15 04:40:53;;;;;;;85.28;32.50;;;;;;;-146.84;100.00;65060.63;5001355;28;20042;-75
2022/03/15 04:43:19;;;;;;;85.97;33.03;;;;;;;-146.84;100.00;65060.63;5018793;28;20130;-76
2022/03/15 04:45:45;;;;;;;81.60;31.05;;;;;;;-146.84;100.00;65060.63;5023673;28;20038;-78
2022/03/15 04:48:11;;;;;;;199.52;32.47;;;;;;;-146.84;100.00;65060.63;5016548;28;20069;-77
2022/03/15 04:50:38;;;;;;;90.30;32.53;;;;;;;-146.84;100.00;65060.63;5000210;28;20050;-76
2022/03/15 04:53:04;;;;;;;84.03;33.03;;;;;;;-146.84;100.00;65060.63;5015921;28;20033;-77
2022/03/15 04:55:29;;;;;;;89.00;31.27;;;;;;;-146.84;100.00;65060.63;4997646;28;20078;-77
2022/03/15 04:57:55;;;;;;;62.25;29.95;;;;;;;-146.84;100.00;65060.63;5015816;28;20040;-78
2022/03/15 05:00:20;;;;;;;73.78;30.52;;;;;;;-146.84;100.00;65060.63;5000500;28;20074;-77
2022/03/15 05:02:46;;;;;;;89.40;31.23;;;;;;;-146.84;100.00;65060.63;4999131;28;20110;-77
2022/03/15 05:05:14;;;;;;;63.28;30.88;;;;;;;-146.84;100.00;65060.63;5032759;28;20056;-75
2022/03/15 05:07:41;;;;;;;88.88;31.63;;;;;;;-146.84;100.00;65060.63;5016670;28;20036;-75
2022/03/15 05:13:00;;;;;;;128.80;30.42;;;;;;;-146.84;100.00;65060.63;4990359;28;20046;-76
2022/03/15 05:15:27;;;;;;;69.93;27.52;;;;;;;-146.84;100.00;65060.63;4999029;28;20038;-77
2022/03/15 05:17:52;;;;;;;58.05;28.65;;;;;;;-146.84;100.00;65060.63;5000226;28;20148;-76
2022/03/15 05:20:18;;;;;;;54.50;26.90;;;;;;;-146.84;100.00;65060.63;5025689;28;20054;-77
2022/03/15 05:22:44;;;;;;;55.40;27.05;;;;;;;-146.84;100.00;65060.63;5010476;28;20168;-77
2022/03/15 05:25:13;;;;;;;62.15;28.55;;;;;;;-146.84;100.00;65060.63;4999308;28;20045;-76
2022/03/15 05:27:41;;;;;;;69.43;28.83;;;;;;;-146.84;100.00;65060.63;5013419;28;20049;-77
2022/03/15 05:30:08;;;;;;;63.63;29.10;;;;;;;-146.84;100.00;65060.63;5015354;28;20032;-76
2022/03/15 05:32:34;;;;;;;99.28;30.25;;;;;;;-146.84;100.00;65060.63;5016244;28;20088;-79
2022/03/15 05:35:01;;;;;;;63.95;28.27;;;;;;;-146.84;100.00;65060.63;4996104;28;20133;-75
2022/03/15 05:37:27;;;;;;;71.25;29.63;;;;;;;-146.84;100.00;65060.63;5008577;28;20069;-77
2022/03/15 05:39:53;;;;;;;64.75;29.63;;;;;;;-146.84;100.00;65060.63;4998845;28;20096;-75
2022/03/15 05:42:19;;;;;;;68.13;29.20;;;;;;;-146.84;100.00;65060.63;4997581;28;20041;-75
2022/03/15 05:44:45;;;;;;;75.60;31.10;;;;;;;-146.84;100.00;65060.63;4992698;28;20031;-76
2022/03/15 05:47:11;;;;;;;76.65;33.50;;;;;;;-146.84;100.00;65060.63;5030920;28;20037;-77
2022/03/15 05:49:37;;;;;;;95.35;31.77;;;;;;;-146.84;100.00;65060.63;5015248;28;20091;-76
2022/03/15 05:52:03;;;;;;;87.53;30.38;;;;;;;-146.84;100.00;65060.63;5014294;28;20037;-75
2022/03/15 05:54:29;;;;;;;60.67;30.67;;;;;;;-146.84;100.00;65060.63;5017244;28;20042;-77
2022/03/15 05:56:55;;;;;;;76.38;32.35;;;;;;;-146.84;100.00;65060.63;4997935;28;20117;-75
2022/03/15 05:59:21;;;;;;;98.30;31.55;;;;;;;-146.84;100.00;65060.63;5008674;28;20649;-77
2022/03/15 06:01:46;;;;;;;68.28;32.80;;;;;;;-146.84;100.00;65060.63;4998486;28;20095;-76
2022/03/15 06:04:12;;;;;;;70.13;33.30;;;;;;;-146.84;100.00;65060.63;5009195;28;20389;-75
2022/03/15 06:06:38;;;;;;;72.80;33.03;;;;;;;-146.84;100.00;65060.63;4995234;28;20041;-77
2022/03/15 06:09:04;;;;;;;84.60;34.95;;;;;;;-146.84;100.00;65060.63;4983805;28;20037;-77
2022/03/15 06:11:32;;;;;;;71.65;33.67;;;;;;;-146.84;100.00;65060.63;4994791;28;20137;-76
2022/03/15 06:13:58;;;;;;;104.30;33.78;;;;;;;-146.84;100.00;65060.63;5013221;28;20056;-76
2022/03/15 06:16:24;;;;;;;65.85;31.48;;;;;;;-146.84;100.00;65060.63;5028555;28;20104;-76
2022/03/15 06:18:50;;;;;;;76.43;31.48;;;;;;;-146.84;100.00;65060.63;5022194;28;20424;-76
2022/03/15 06:21:17;;;;;;;89.68;30.45;;;;;;;-146.84;100.00;65060.63;5011248;28;20034;-75
2022/03/15 06:23:43;;;;;;;67.97;30.88;;;;;;;-146.84;100.00;65060.63;4997590;28;20034;-75
2022/03/15 06:26:09;;;;;;;65.88;30.35;;;;;;;-146.84;100.00;65060.63;5011208;28;20041;-77
2022/03/15 06:28:36;;;;;;;65.25;30.77;;;;;;;-146.84;100.00;65060.63;5019244;28;20396;-76
2022/03/15 06:31:02;;;;;;;63.05;30.17;;;;;;;-146.84;100.00;65060.63;4995156;28;20084;-75
2022/03/15 06:33:29;;;;;;;64.40;29.88;;;;;;;-146.84;100.00;65060.63;5010603;28;20033;-78
2022/03/15 06:35:55;;;;;;;64.07;30.40;;;;;;;-146.84;100.00;65060.63;5007019;28;20038;-76
2022/03/15 06:38:21;;;;;;;71.60;28.48;;;;;;;-146.84;100.00;65060.63;5014496;28;20514;-77
2022/03/15 06:40:48;;;;;;;59.45;28.90;;;;;;;-146.84;100.00;65060.63;4995614;28;20097;-77
2022/03/15 06:43:14;;;;;;;58.83;27.23;;;;;;;-146.84;100.00;65060.63;4996700;28;20041;-77
2022/03/15 06:45:44;;;;;;;60.20;27.27;;;;;;;-146.84;100.00;65060.63;4994658;28;20030;-76
2022/03/15 06:48:10;;;;;;;50.45;25.42;;;;;;;-146.84;100.00;65060.63;5012779;28;20120;-75
2022/03/15 06:50:36;;;;;;;63.67;23.75;;;;;;;-146.84;100.00;65060.63;5000268;28;20069;-78
2022/03/15 06:53:02;;;;;;;48.33;21.90;;;;;;;-146.84;100.00;65060.63;5029153;28;20424;-76
2022/03/15 06:55:29;;;;;;;35.30;20.58;;;;;;;-146.84;100.00;65060.63;4993023;28;20030;-77
2022/03/15 06:57:55;;;;;;;48.15;21.85;;;;;;;-146.84;100.00;65060.63;4996184;28;20022;-76
2022/03/15 07:00:23;;;;;;;36.13;20.60;;;;;;;-146.84;100.00;65060.63;5013211;28;20069;-76
2022/03/15 07:02:49;;;;;;;42.80;21.15;;;;;;;-146.84;100.00;65060.63;4997304;28;20119;-75
2022/03/15 07:05:14;;;;;;;51.50;23.65;;;;;;;-146.84;100.00;65060.63;4999905;28;20048;-77
2022/03/15 07:07:40;;;;;;;61.25;22.90;;;;;;;-146.84;100.00;65060.63;5011078;28;20040;-77
2022/03/15 07:10:07;;;;;;;44.92;25.10;;;;;;;-146.84;100.00;65060.63;5013005;28;20053;-76
2022/03/15 07:12:33;;;;;;;42.15;24.63;;;;;;;-146.84;100.00;65060.63;5007550;28;20030;-77
2022/03/15 07:15:03;;;;;;;81.95;25.73;;;;;;;-146.84;100.00;65060.63;4994433;28;20034;-78
2022/03/15 07:17:30;;;;;;;91.03;27.27;;;;;;;-146.84;100.00;65060.63;5003754;28;20037;-76
2022/03/15 07:19:57;;;;;;;62.72;25.67;;;;;;;-146.84;100.00;65060.63;4996581;28;20050;-75
2022/03/15 07:22:24;;;;;;;83.80;27.77;;;;;;;-146.84;100.00;65060.63;4996988;28;20464;-79
2022/03/15 07:24:51;;;;;;;51.28;26.83;;;;;;;-146.84;100.00;65060.63;4988636;28;20119;-76
2022/03/15 07:27:17;;;;;;;58.45;27.08;;;;;;;-146.84;100.00;65060.63;5006025;28;20038;-78
2022/03/15 07:29:43;;;;;;;62.35;26.90;;;;;;;-146.84;100.00;65060.63;4979939;28;20061;-75
2022/03/15 07:32:08;;;;;;;52.92;26.40;;;;;;;-146.84;100.00;65060.63;4991318;28;20057;-76
2022/03/15 07:34:34;;;;;;;50.47;26.80;;;;;;;-146.84;100.00;65060.63;4980079;28;20084;-77
2022/03/15 07:37:00;;;;;;;50.78;27.25;;;;;;;-146.84;100.00;65060.63;4990954;28;20365;-76
2022/03/15 07:39:26;;;;;;;52.95;28.35;;;;;;;-146.84;100.00;65060.63;5013103;28;20095;-77
2022/03/15 07:41:52;;;;;;;50.13;27.23;;;;;;;-146.84;100.00;65060.63;4997391;28;20063;-77
2022/03/15 07:44:18;;;;;;;56.92;27.17;;;;;;;-146.84;100.00;65060.63;4999109;28;20507;-79
2022/03/15 07:46:48;;;;;;;55.53;27.13;;;;;;;-146.84;100.00;65060.63;4993358;28;20026;-77
2022/03/15 07:49:16;;;;;;;50.15;26.60;;;;;;;-146.84;100.00;65060.63;4999361;28;20091;-77
2022/03/15 07:51:42;;;;;;;45.50;26.42;;;;;;;-146.84;100.00;65060.63;4995033;28;20084;-77
2022/03/15 07:54:08;;;;;;;44.42;24.05;;;;;;;-146.84;100.00;65060.63;5010818;28;20029;-78
2022/03/15 07:56:33;;;;;;;39.15;23.95;;;;;;;-146.84;100.00;65060.63;4993102;28;20069;-77
2022/03/15 07:58:59;;;;;;;43.83;24.20;;;;;;;-146.84;100.00;65060.63;4995415;28;20030;-76
2022/03/15 08:01:24;;;;;;;48.55;25.42;;;;;;;-146.84;100.00;65060.63;5030670;28;20080;-76
2022/03/15 08:03:52;;;;;;;42.40;24.52;;;;;;;-146.84;100.00;65060.63;5009629;28;20045;-77
2022/03/15 08:06:18;;;;;;;43.15;23.27;;;;;;;-146.84;100.00;65060.63;5015209;28;20069;-77
2022/03/15 08:08:43;;;;;;;39.78;22.98;;;;;;;-146.84;100.00;65060.63;4997347;28;20034;-78
2022/03/15 08:11:09;;;;;;;42.90;23.90;;;;;;;-146.84;100.00;65060.63;5011831;28;20134;-75
2022/03/15 08:13:34;;;;;;;40.40;24.13;;;;;;;-146.84;100.00;65060.63;4989343;28;20037;-76
2022/03/15 08:16:03;;;;;;;43.25;23.80;;;;;;;-146.84;100.00;65060.63;4992658;28;20030;-76
2022/03/15 08:18:28;;;;;;;42.72;23.98;;;;;;;-146.84;100.00;65060.63;4995078;28;20034;-76
2022/03/15 08:20:56;;;;;;;40.28;21.80;;;;;;;-146.84;100.00;65060.63;4991149;28;20058;-75
2022/03/15 08:23:23;;;;;;;38.15;22.13;;;;;;;-146.84;100.00;65060.63;5004233;28;20038;-76
2022/03/15 08:25:48;;;;;;;35.70;21.92;;;;;;;-146.84;100.00;65060.63;4992287;28;20045;-78
2022/03/15 08:28:14;;;;;;;29.88;19.02;;;;;;;-146.84;100.00;65060.63;4994467;28;20441;-75
2022/03/15 08:30:41;;;;;;;33.42;19.98;;;;;;;-146.84;100.00;65060.63;4985748;28;20050;-77
2022/03/15 08:33:06;;;;;;;33.70;20.25;;;;;;;-146.84;100.00;65060.63;5005985;28;20110;-76
2022/03/15 08:35:32;;;;;;;28.05;18.33;;;;;;;-146.84;100.00;65060.63;4991472;28;20045;-76
2022/03/15 08:37:58;;;;;;;30.23;18.58;;;;;;;-146.84;100.00;65060.63;5018499;28;20033;-76
2022/03/15 08:40:23;;;;;;;30.20;18.67;;;;;;;-146.84;100.00;65060.63;5004053;28;20042;-78
2022/03/15 08:42:54;;;;;;;33.22;18.42;;;;;;;-146.84;100.00;65060.63;5012242;28;20084;-76
2022/03/15 08:45:20;;;;;;;29.23;18.15;;;;;;;-146.84;100.00;65060.63;5001596;28;20466;-77
2022/03/15 08:47:45;;;;;;;34.42;19.27;;;;;;;-146.84;100.00;65060.63;5014273;28;20047;-77
2022/03/15 08:50:11;;;;;;;29.35;18.58;;;;;;;-146.84;100.00;65060.63;5002025;28;20124;-78
2022/03/15 08:52:37;;;;;;;30.40;18.75;;;;;;;-146.84;100.00;65060.63;5023972;28;20132;-76
2022/03/15 08:55:03;;;;;;;33.40;19.08;;;;;;;-146.84;100.00;65060.63;5009861;28;20072;-76
2022/03/15 08:57:29;;;;;;;30.13;18.63;;;;;;;-146.84;100.00;65060.63;5017211;28;20030;-77
2022/03/15 08:59:55;;;;;;;26.80;16.85;;;;;;;-146.84;100.00;65060.63;4998741;28;20144;-78
2022/03/15 09:02:21;;;;;;;28.23;17.50;;;;;;;-146.84;100.00;65060.63;5002209;28;20038;-78
2022/03/15 09:04:47;;;;;;;27.73;17.45;;;;;;;-146.84;100.00;65060.63;5001384;28;20235;-76
2022/03/15 09:07:13;;;;;;;24.67;16.83;;;;;;;-146.84;100.00;65060.63;4993462;28;20053;-75
2022/03/15 09:09:38;;;;;;;26.42;17.55;;;;;;;-146.84;100.00;65060.63;5001166;28;20044;-75
2022/03/15 09:12:05;;;;;;;25.52;17.17;;;;;;;-146.84;100.00;65060.63;5032142;28;20033;-76
2022/03/15 09:14:31;;;;;;;29.13;18.40;;;;;;;-146.84;100.00;65060.63;4999911;28;20064;-76
2022/03/15 09:16:57;;;;;;;28.92;17.70;;;;;;;-146.84;100.00;65060.63;5001329;28;20121;-78
2022/03/15 09:19:24;;;;;;;27.05;17.20;;;;;;;-146.84;100.00;65060.63;5010880;28;20048;-77
2022/03/15 09:21:50;;;;;;;28.50;17.80;;;;;;;-146.84;100.00;65060.63;5022028;28;20026;-77
2022/03/15 09:24:16;;;;;;;27.95;17.05;;;;;;;-146.84;100.00;65060.63;5015920;28;20037;-76
2022/03/15 09:26:42;;;;;;;36.55;19.00;;;;;;;-146.84;100.00;65060.63;4999307;28;20064;-76
2022/03/15 09:29:09;;;;;;;34.88;20.08;;;;;;;-146.84;100.00;65060.63;5014379;28;20032;-78
2022/03/15 09:31:35;;;;;;;36.30;21.67;;;;;;;-146.84;100.00;65060.63;4998756;28;20034;-77
2022/03/15 09:34:01;;;;;;;38.60;21.05;;;;;;;-146.84;100.00;65060.63;5000005;28;20049;-75
2022/03/15 09:36:27;;;;;;;40.17;21.95;;;;;;;-146.84;100.00;65060.63;5005693;28;20033;-78
2022/03/15 09:38:55;;;;;;;38.17;21.92;;;;;;;-146.84;100.00;65060.63;5024103;28;20034;-76
2022/03/15 09:41:24;;;;;;;38.45;23.60;;;;;;;-146.84;100.00;65060.63;4999433;28;20135;-76
2022/03/15 09:43:53;;;;;;;38.17;22.02;;;;;;;-146.84;100.00;65060.63;4999456;28;20042;-76
2022/03/15 09:46:21;;;;;;;44.38;22.08;;;;;;;-146.84;100.00;65060.63;5008201;28;20038;-76
2022/03/15 09:48:51;;;;;;;34.83;21.13;;;;;;;-146.84;100.00;65060.63;4996281;28;20496;-76
2022/03/15 09:51:18;;;;;;;35.85;20.38;;;;;;;-146.84;100.00;65060.63;4982752;28;20132;-76
2022/03/15 09:53:46;;;;;;;35.55;20.40;;;;;;;-146.84;100.00;65060.63;4994914;28;20042;-76
2022/03/15 09:56:15;;;;;;;36.67;20.38;;;;;;;-146.84;100.00;65060.63;5014904;28;20539;-76
2022/03/15 09:58:41;;;;;;;36.03;20.65;;;;;;;-146.84;100.00;65060.63;4992517;28;20129;-75
2022/03/15 10:01:12;;;;;;;38.88;20.63;;;;;;;-146.84;100.00;65060.63;5011654;28;20480;-76
2022/03/15 10:03:38;;;;;;;36.38;18.45;;;;;;;-146.84;100.00;65060.63;5000191;28;20038;-77
2022/03/15 10:06:04;;;;;;;35.85;18.67;;;;;;;-146.84;100.00;65060.63;4998975;28;20034;-76
2022/03/15 10:08:29;;;;;;;34.90;19.13;;;;;;;-146.84;100.00;65060.63;5000921;28;20061;-77
2022/03/15 10:10:55;;;;;;;36.25;19.15;;;;;;;-146.84;100.00;65060.63;4992901;28;20038;-79
2022/03/15 10:13:20;;;;;;;33.85;19.30;;;;;;;-146.84;100.00;65060.63;5005649;28;20085;-79
2022/03/15 10:15:55;;;;;;;37.85;20.73;;;;;;;-146.84;100.00;65060.63;5005530;28;20038;-79
2022/03/15 10:18:21;;;;;;;39.58;20.00;;;;;;;-146.84;100.00;65060.63;5012577;28;20038;-77
2022/03/15 10:20:48;;;;;;;35.13;19.60;;;;;;;-146.84;100.00;65060.63;5004998;28;20567;-75
2022/03/15 10:23:16;;;;;;;32.53;18.50;;;;;;;-146.84;100.00;65060.63;5016414;28;20104;-77
2022/03/15 10:25:48;;;;;;;34.25;19.08;;;;;;;-146.84;100.00;65060.63;4998795;28;20029;-79
2022/03/15 10:28:14;;;;;;;35.72;19.52;;;;;;;-146.84;100.00;65060.63;5028417;28;20170;-76
2022/03/15 10:30:42;;;;;;;38.58;20.60;;;;;;;-146.84;100.00;65060.63;5014303;28;20093;-76
2022/03/15 10:33:07;;;;;;;32.35;18.90;;;;;;;-146.84;100.00;65060.63;4997703;28;20036;-77
2022/03/15 10:35:40;;;;;;;32.45;18.50;;;;;;;-146.84;100.00;65060.63;4994650;28;20401;-76
2022/03/15 10:38:06;;;;;;;33.10;19.25;;;;;;;-146.84;100.00;65060.63;5029102;28;20025;-76
2022/03/15 10:40:41;;;;;;;30.05;17.02;;;;;;;-146.84;100.00;65060.63;4993415;28;20416;-76
2022/03/15 10:43:12;;;;;;;28.95;17.08;;;;;;;-146.84;100.00;65060.63;4991816;28;20050;-77
2022/03/15 10:45:45;;;;;;;33.00;16.88;;;;;;;-146.84;100.00;65060.63;5011198;28;20069;-79
2022/03/15 10:48:15;;;;;;;26.13;16.25;;;;;;;-146.84;100.00;65060.63;5013394;28;20152;-78
2022/03/15 10:51:10;;;;;;;27.15;16.17;;;;;;;-146.84;100.00;65060.63;4994488;28;20042;-77
2022/03/15 10:53:38;;;;;;;29.75;15.80;;;;;;;-146.84;100.00;65060.63;5020982;28;20034;-79